Time;durP1;ratioP1;P1;durP2;ratioP2;P2;SDS_P1;SDS_P2;PMS_P1;PMS_P2;Temp;Humidity;BMP_temperature;BMP_pressure;BME280_temperature;BME280_humidity;BME280_pressure;Samples;Min_cycle;Max_cycle;Signal;HPM_P1;HPM_P2
2021/04/01 00:01:45;;;;;;;5.30;3.75;;;;;;;;;;5073087;28;20459;-18
2021/04/01 00:04:11;;;;;;;8.13;4.28;;;;;;;;;;5072706;28;20196;-17
2021/04/01 00:06:37;;;;;;;9.00;3.15;;;;;;;;;;5072659;28;20028;-17
2021/04/01 00:09:06;;;;;;;12.68;3.47;;;;;;;;;;5072475;28;20016;-17
2021/04/01 00:11:32;;;;;;;5.75;3.47;;;;;;;;;;5072642;28;20497;-20
2021/04/01 00:14:00;;;;;;;6.57;3.90;;;;;;;;;;5072422;28;20032;-20
2021/04/01 00:16:26;;;;;;;5.10;2.90;;;;;;;;;;5072514;28;20025;-19
2021/04/01 00:18:51;;;;;;;6.40;3.60;;;;;;;;;;5072777;28;20054;-20
2021/04/01 00:21:17;;;;;;;6.75;3.45;;;;;;;;;;5072355;28;20046;-20
2021/04/01 00:23:42;;;;;;;7.22;3.10;;;;;;;;;;5072456;28;20059;-20
2021/04/01 00:26:07;;;;;;;7.35;3.33;;;;;;;;;;5072285;28;20075;-20
2021/04/01 00:28:33;;;;;;;9.45;3.67;;;;;;;;;;5072275;28;20082;-19
2021/04/01 00:30:58;;;;;;;11.68;3.88;;;;;;;;;;5072517;28;20543;-16
2021/04/01 00:33:24;;;;;;;8.90;3.90;;;;;;;;;;5071652;28;20627;-18
2021/04/01 00:35:49;;;;;;;5.32;3.28;;;;;;;;;;5072279;28;20104;-18
2021/04/01 00:38:14;;;;;;;12.48;4.18;;;;;;;;;;5072271;28;20052;-18
2021/04/01 00:40:40;;;;;;;8.63;3.08;;;;;;;;;;5072260;28;20020;-18
2021/04/01 00:43:05;;;;;;;5.68;3.22;;;;;;;;;;5072028;28;20387;-18
2021/04/01 00:45:31;;;;;;;6.90;3.72;;;;;;;;;;5072156;28;20024;-17
2021/04/01 00:47:56;;;;;;;10.43;3.53;;;;;;;;;;5072390;28;20020;-18
2021/04/01 00:50:26;;;;;;;10.55;3.47;;;;;;;;;;5072194;28;20047;-18
2021/04/01 00:52:52;;;;;;;7.53;3.45;;;;;;;;;;5072394;28;20029;-18
2021/04/01 00:55:17;;;;;;;6.35;3.70;;;;;;;;;;5072120;28;20030;-18
2021/04/01 00:57:43;;;;;;;13.40;3.83;;;;;;;;;;5072105;28;20028;-18
2021/04/01 01:00:11;;;;;;;8.50;3.78;;;;;;;;;;5071938;28;20025;-18
2021/04/01 01:02:36;;;;;;;4.90;3.05;;;;;;;;;;5072341;28;20020;-18
2021/04/01 01:05:02;;;;;;;8.05;3.05;;;;;;;;;;5071788;28;20099;-20
2021/04/01 01:07:28;;;;;;;10.70;3.17;;;;;;;;;;5072034;28;20028;-18
2021/04/01 01:09:53;;;;;;;8.48;3.65;;;;;;;;;;5070629;28;20122;-17
2021/04/01 01:12:19;;;;;;;4.53;3.55;;;;;;;;;;5072067;28;20032;-18
2021/04/01 01:14:44;;;;;;;9.13;3.60;;;;;;;;;;5072288;28;20459;-18
2021/04/01 01:17:09;;;;;;;7.65;3.25;;;;;;;;;;5070816;28;20054;-18
2021/04/01 01:19:39;;;;;;;8.18;3.45;;;;;;;;;;5071797;28;20043;-17
2021/04/01 01:22:05;;;;;;;7.63;3.83;;;;;;;;;;5072031;28;20035;-18
2021/04/01 01:24:31;;;;;;;9.73;3.80;;;;;;;;;;5071675;28;20032;-18
2021/04/01 01:26:56;;;;;;;7.40;3.35;;;;;;;;;;5071664;28;20094;-18
2021/04/01 01:29:21;;;;;;;8.57;3.58;;;;;;;;;;5071588;28;20463;-17
2021/04/01 01:31:49;;;;;;;10.68;3.90;;;;;;;;;;5072001;28;20056;-17
2021/04/01 01:34:15;;;;;;;4.47;3.10;;;;;;;;;;5071881;28;20387;-18
2021/04/01 01:36:41;;;;;;;5.45;3.08;;;;;;;;;;5070321;28;20450;-17
2021/04/01 01:39:06;;;;;;;8.48;3.65;;;;;;;;;;5070699;28;20108;-17
2021/04/01 01:41:32;;;;;;;9.57;3.55;;;;;;;;;;5071939;28;20479;-18
2021/04/01 01:43:57;;;;;;;8.63;3.42;;;;;;;;;;5072257;28;20021;-18
2021/04/01 01:46:23;;;;;;;9.30;3.17;;;;;;;;;;5073960;28;20048;-18
2021/04/01 01:48:48;;;;;;;11.00;3.78;;;;;;;;;;5075538;28;20078;-18
2021/04/01 01:51:13;;;;;;;9.32;3.55;;;;;;;;;;5073770;28;20135;-18
2021/04/01 01:53:39;;;;;;;8.18;3.38;;;;;;;;;;5075190;28;20092;-18
2021/04/01 01:56:04;;;;;;;7.93;3.53;;;;;;;;;;5075047;28;20048;-18
2021/04/01 01:58:30;;;;;;;6.60;4.05;;;;;;;;;;5075258;28;20108;-18
2021/04/01 02:00:57;;;;;;;6.38;3.60;;;;;;;;;;5075221;28;20398;-18
2021/04/01 02:03:23;;;;;;;8.65;3.78;;;;;;;;;;5075028;28;20042;-18
2021/04/01 02:05:48;;;;;;;9.07;4.28;;;;;;;;;;5075145;28;20048;-18
2021/04/01 02:08:14;;;;;;;8.80;3.40;;;;;;;;;;5075045;28;20482;-17
2021/04/01 02:10:44;;;;;;;5.30;3.38;;;;;;;;;;5075152;28;20060;-18
2021/04/01 02:13:10;;;;;;;7.15;3.80;;;;;;;;;;5074648;28;20097;-18
2021/04/01 02:15:37;;;;;;;7.80;3.70;;;;;;;;;;5074808;28;20471;-18
2021/04/01 02:18:12;;;;;;;5.25;3.22;;;;;;;;;;5073381;28;20016;-18
2021/04/01 02:20:41;;;;;;;10.40;3.60;;;;;;;;;;5074690;28;20024;-18
2021/04/01 02:23:11;;;;;;;11.85;4.30;;;;;;;;;;5074203;28;20020;-18
2021/04/01 02:25:37;;;;;;;7.95;4.05;;;;;;;;;;5073842;28;20080;-18
2021/04/01 02:28:02;;;;;;;6.78;3.42;;;;;;;;;;5074448;28;20071;-18
2021/04/01 02:30:28;;;;;;;11.30;3.90;;;;;;;;;;5074036;28;20047;-18
2021/04/01 02:32:53;;;;;;;7.35;3.85;;;;;;;;;;5074390;28;20062;-19
2021/04/01 02:35:19;;;;;;;6.32;3.17;;;;;;;;;;5074564;28;20051;-19
2021/04/01 02:37:44;;;;;;;6.30;3.55;;;;;;;;;;5074145;28;20067;-18
2021/04/01 02:40:10;;;;;;;4.90;3.20;;;;;;;;;;5073053;28;20387;-18
2021/04/01 02:42:36;;;;;;;7.63;3.85;;;;;;;;;;5074417;28;20461;-18
2021/04/01 02:45:01;;;;;;;6.50;3.17;;;;;;;;;;5074369;28;20566;-18
2021/04/01 02:47:26;;;;;;;7.55;2.78;;;;;;;;;;5074316;28;20021;-16
2021/04/01 02:49:52;;;;;;;8.18;3.55;;;;;;;;;;5074300;28;20056;-17
2021/04/01 02:52:17;;;;;;;8.35;3.40;;;;;;;;;;5074318;28;20020;-17
2021/04/01 02:54:42;;;;;;;11.18;3.95;;;;;;;;;;5072110;28;20479;-18
2021/04/01 02:57:18;;;;;;;5.43;3.70;;;;;;;;;;5073856;28;20016;-18
2021/04/01 02:59:45;;;;;;;5.22;4.00;;;;;;;;;;5074278;28;20096;-16
2021/04/01 03:02:10;;;;;;;7.82;3.67;;;;;;;;;;5073743;28;20020;-17
2021/04/01 03:04:37;;;;;;;7.65;3.80;;;;;;;;;;5074110;28;20394;-17
2021/04/01 03:07:03;;;;;;;5.50;3.05;;;;;;;;;;5073657;28;20474;-17
2021/04/01 03:09:28;;;;;;;7.32;4.00;;;;;;;;;;5073693;28;20025;-17
2021/04/01 03:11:53;;;;;;;8.30;3.70;;;;;;;;;;5073701;28;20040;-18
2021/04/01 03:14:19;;;;;;;4.70;3.15;;;;;;;;;;5072330;28;20096;-17
2021/04/01 03:16:44;;;;;;;6.63;3.53;;;;;;;;;;5073597;28;20044;-17
2021/04/01 03:19:09;;;;;;;6.55;3.80;;;;;;;;;;5073533;28;20028;-18
2021/04/01 03:21:35;;;;;;;10.38;3.58;;;;;;;;;;5073738;28;20017;-17
2021/04/01 03:24:00;;;;;;;9.50;3.42;;;;;;;;;;5073359;28;20558;-18
2021/04/01 03:26:26;;;;;;;5.50;3.03;;;;;;;;;;5073138;28;20040;-18
2021/04/01 03:28:52;;;;;;;13.32;4.10;;;;;;;;;;5073345;28;20090;-18
2021/04/01 03:31:17;;;;;;;10.57;4.15;;;;;;;;;;5073212;28;20398;-17
2021/04/01 03:33:43;;;;;;;7.47;3.88;;;;;;;;;;5073142;28;20118;-18
2021/04/01 03:36:08;;;;;;;4.88;3.10;;;;;;;;;;5073509;28;20158;-18
2021/04/01 03:38:34;;;;;;;5.43;3.05;;;;;;;;;;5073124;28;20021;-18
2021/04/01 03:40:59;;;;;;;5.85;3.33;;;;;;;;;;5073070;28;20383;-18
2021/04/01 03:43:26;;;;;;;7.05;3.42;;;;;;;;;;5073141;28;20024;-18
2021/04/01 03:45:51;;;;;;;7.68;3.72;;;;;;;;;;5072792;28;20036;-18
2021/04/01 03:48:17;;;;;;;6.78;3.38;;;;;;;;;;5072993;28;20031;-17
2021/04/01 03:50:42;;;;;;;5.00;3.17;;;;;;;;;;5072968;28;20012;-17
2021/04/01 03:53:08;;;;;;;9.07;4.43;;;;;;;;;;5072970;28;20040;-17
2021/04/01 03:55:43;;;;;;;8.07;4.07;;;;;;;;;;5071556;28;20491;-18
2021/04/01 04:06:38;;;;;;;7.38;3.95;;;;;;;;;;5071953;28;20032;-18
2021/04/01 04:11:54;;;;;;;7.90;4.55;;;;;;;;;;5072903;28;20368;-18
2021/04/01 04:17:17;;;;;;;10.05;3.75;;;;;;;;;;5060060;28;20040;-18
2021/04/01 04:19:43;;;;;;;9.45;3.85;;;;;;;;;;5072551;28;20021;-18
2021/04/01 04:22:09;;;;;;;8.93;3.97;;;;;;;;;;5072301;28;20039;-18
2021/04/01 04:24:35;;;;;;;10.27;3.92;;;;;;;;;;5072665;28;20055;-17
2021/04/01 04:27:16;;;;;;;5.50;3.67;;;;;;;;;;5072205;28;20063;-18
2021/04/01 04:29:41;;;;;;;6.40;4.13;;;;;;;;;;5072460;28;20032;-17
2021/04/01 04:32:07;;;;;;;7.18;3.88;;;;;;;;;;5072302;28;20016;-18
2021/04/01 04:34:32;;;;;;;6.97;3.53;;;;;;;;;;5072469;28;20024;-18
2021/04/01 04:36:58;;;;;;;7.38;3.88;;;;;;;;;;5072190;28;20032;-17
2021/04/01 04:39:23;;;;;;;5.30;3.55;;;;;;;;;;5072586;28;20108;-18
2021/04/01 04:41:48;;;;;;;6.60;3.55;;;;;;;;;;5070951;28;20360;-18
2021/04/01 04:44:14;;;;;;;5.95;3.78;;;;;;;;;;5072390;28;20017;-17
2021/04/01 04:46:39;;;;;;;5.90;3.58;;;;;;;;;;5072440;28;20028;-17
2021/04/01 04:49:04;;;;;;;6.53;4.28;;;;;;;;;;5072095;28;20136;-18
2021/04/01 04:51:30;;;;;;;9.50;3.63;;;;;;;;;;5072262;28;20438;-18
2021/04/01 04:53:55;;;;;;;6.47;3.40;;;;;;;;;;5072012;28;20032;-17
2021/04/01 04:56:23;;;;;;;9.52;3.45;;;;;;;;;;5072258;28;20024;-18
2021/04/01 04:58:57;;;;;;;9.98;4.10;;;;;;;;;;5072025;28;20032;-18
2021/04/01 05:09:09;;;;;;;8.30;3.90;;;;;;;;;;5071914;28;20033;-18
2021/04/01 05:11:34;;;;;;;7.07;4.25;;;;;;;;;;5072183;28;20078;-17
2021/04/01 05:14:00;;;;;;;7.78;3.83;;;;;;;;;;5071818;28;20032;-18
2021/04/01 05:16:26;;;;;;;7.10;3.75;;;;;;;;;;5072189;28;20157;-18
2021/04/01 05:18:52;;;;;;;7.95;3.65;;;;;;;;;;5074279;28;20024;-17
2021/04/01 05:21:19;;;;;;;5.25;3.28;;;;;;;;;;5075757;28;20020;-17
2021/04/01 05:23:50;;;;;;;9.75;3.90;;;;;;;;;;5075987;28;20029;-17
2021/04/01 05:26:42;;;;;;;7.30;3.70;;;;;;;;;;5075255;28;20045;-17
2021/04/01 05:29:04;;;;;;;6.25;4.10;;;;;;;;;;5075430;28;20028;-17
2021/04/01 05:31:34;;;;;;;8.27;4.18;;;;;;;;;;5075521;28;20024;-17
2021/04/01 05:33:59;;;;;;;8.13;3.65;;;;;;;;;;5075631;28;20028;-17
2021/04/01 05:36:29;;;;;;;5.30;3.80;;;;;;;;;;5075578;28;20023;-17
2021/04/01 05:38:58;;;;;;;8.20;3.80;;;;;;;;;;5075705;28;20028;-16
2021/04/01 05:41:25;;;;;;;6.93;4.07;;;;;;;;;;5075540;28;20021;-17
2021/04/01 05:46:45;;;;;;;7.63;3.83;;;;;;;;;;5067094;28;20049;-17
2021/04/01 06:05:32;;;;;;;8.13;3.63;;;;;;;;;;5074979;28;20036;-17
2021/04/01 06:08:06;;;;;;;7.57;3.72;;;;;;;;;;5074753;28;20111;-18
2021/04/01 06:10:32;;;;;;;10.40;3.97;;;;;;;;;;5074909;28;20028;-17
2021/04/01 06:12:57;;;;;;;6.78;3.53;;;;;;;;;;5074743;28;20479;-17
2021/04/01 06:15:23;;;;;;;7.57;4.35;;;;;;;;;;5074752;28;20025;-18
2021/04/01 06:17:51;;;;;;;7.57;3.80;;;;;;;;;;5075040;28;20021;-18
2021/04/01 06:20:16;;;;;;;10.65;4.45;;;;;;;;;;5074762;28;20033;-18
2021/04/01 06:22:42;;;;;;;6.32;4.00;;;;;;;;;;5074801;28;20027;-18
2021/04/01 06:25:13;;;;;;;4.90;3.42;;;;;;;;;;5074825;28;20051;-18
2021/04/01 06:27:48;;;;;;;6.78;4.18;;;;;;;;;;5074512;28;20464;-17
2021/04/01 06:32:58;;;;;;;5.32;3.30;;;;;;;;;;5074566;28;20025;-18
2021/04/01 06:40:50;;;;;;;5.15;3.28;;;;;;;;;;5074643;28;20036;-18
2021/04/01 06:43:22;;;;;;;7.45;3.83;;;;;;;;;;5074163;28;20024;-18
2021/04/01 06:45:53;;;;;;;10.93;3.70;;;;;;;;;;5074041;28;20032;-17
2021/04/01 06:48:21;;;;;;;5.43;3.05;;;;;;;;;;5074213;28;20024;-18
2021/04/01 06:50:47;;;;;;;6.07;2.95;;;;;;;;;;5072839;28;20029;-17
2021/04/01 06:53:19;;;;;;;15.60;3.50;;;;;;;;;;5072828;28;20379;-19
2021/04/01 06:55:54;;;;;;;14.10;3.78;;;;;;;;;;5074089;28;20037;-18
2021/04/01 06:58:45;;;;;;;6.05;3.45;;;;;;;;;;5073921;28;20025;-18
2021/04/01 07:01:40;;;;;;;10.05;3.90;;;;;;;;;;5074183;28;20103;-17
2021/04/01 07:04:04;;;;;;;5.43;3.75;;;;;;;;;;5072123;28;20186;-18
2021/04/01 07:06:33;;;;;;;10.30;3.88;;;;;;;;;;5073806;28;20034;-18
2021/04/01 07:11:33;;;;;;;8.02;4.68;;;;;;;;;;5073586;28;20494;-17
2021/04/01 07:14:11;;;;;;;9.73;4.28;;;;;;;;;;5073587;28;20471;-17
2021/04/01 07:16:44;;;;;;;7.47;3.42;;;;;;;;;;5073923;28;20032;-17
2021/04/01 07:35:55;;;;;;;8.20;2.65;;;;;;;;;;5066973;28;20047;-18
2021/04/01 07:46:41;;;;;;;7.10;3.08;;;;;;;;;;5072929;28;20119;-17
2021/04/01 07:49:13;;;;;;;6.38;3.40;;;;;;;;;;5072933;28;20019;-18
2021/04/01 07:54:06;;;;;;;4.75;3.33;;;;;;;;;;5072793;28;20264;-17
2021/04/01 07:56:43;;;;;;;5.10;2.40;;;;;;;;;;5071801;28;20035;-17
2021/04/01 08:04:19;;;;;;;8.80;2.78;;;;;;;;;;5072988;28;20395;-17
2021/04/01 08:06:45;;;;;;;4.63;2.22;;;;;;;;;;5071499;28;20033;-17
2021/04/01 08:09:18;;;;;;;4.78;2.58;;;;;;;;;;5071191;28;20142;-17
2021/04/01 08:11:47;;;;;;;6.28;2.70;;;;;;;;;;5072587;28;20036;-17
2021/04/01 08:14:17;;;;;;;3.22;2.20;;;;;;;;;;5071184;28;20024;-17
2021/04/01 08:16:49;;;;;;;8.45;3.47;;;;;;;;;;5072804;28;20356;-17
2021/04/01 08:19:17;;;;;;;7.20;2.55;;;;;;;;;;5072526;28;20031;-17
2021/04/01 08:21:43;;;;;;;4.05;2.55;;;;;;;;;;5071617;28;20131;-17
2021/04/01 08:24:16;;;;;;;5.97;2.25;;;;;;;;;;4716745;28;10000377;-18
2021/04/01 08:27:20;;;;;;;5.88;2.65;;;;;;;;;;5068410;28;20137;-18
2021/04/01 08:30:33;;;;;;;5.93;2.83;;;;;;;;;;5067629;28;20513;-19
2021/04/01 08:34:59;;;;;;;7.65;2.58;;;;;;;;;;5067073;28;20012;-20
2021/04/01 08:37:30;;;;;;;3.15;2.15;;;;;;;;;;5068650;28;20055;-20
2021/04/01 08:39:56;;;;;;;3.17;2.20;;;;;;;;;;5067373;28;20037;-18
2021/04/01 08:42:27;;;;;;;4.88;2.53;;;;;;;;;;5068390;28;20112;-17
2021/04/01 08:45:12;;;;;;;4.88;2.15;;;;;;;;;;5068742;28;20035;-17
2021/04/01 08:47:49;;;;;;;5.43;2.42;;;;;;;;;;5068204;28;20063;-17
2021/04/01 08:50:27;;;;;;;6.65;2.90;;;;;;;;;;5068495;28;20020;-18
2021/04/01 08:53:12;;;;;;;5.40;2.92;;;;;;;;;;5069881;28;20082;-18
2021/04/01 08:55:40;;;;;;;5.60;2.67;;;;;;;;;;5075353;28;20032;-18
2021/04/01 08:58:11;;;;;;;5.40;2.58;;;;;;;;;;5074385;28;20013;-18
2021/04/01 09:00:41;;;;;;;6.18;2.53;;;;;;;;;;5060579;28;20036;-18
2021/04/01 09:03:06;;;;;;;4.55;2.45;;;;;;;;;;5074594;28;20009;-18
2021/04/01 09:05:32;;;;;;;5.72;3.38;;;;;;;;;;5074753;28;20090;-18
2021/04/01 09:08:01;;;;;;;6.60;3.25;;;;;;;;;;5073780;28;20024;-19
2021/04/01 09:10:32;;;;;;;7.75;3.38;;;;;;;;;;5073203;28;20078;-19
2021/04/01 09:15:49;;;;;;;12.73;3.33;;;;;;;;;;5075198;28;20027;-18
2021/04/01 09:18:21;;;;;;;4.60;2.20;;;;;;;;;;5074811;28;20047;-18
2021/04/01 09:20:51;;;;;;;11.48;3.65;;;;;;;;;;5074891;28;20118;-18
2021/04/01 09:23:17;;;;;;;6.70;3.05;;;;;;;;;;5072362;28;20455;-18
2021/04/01 09:25:46;;;;;;;11.57;4.15;;;;;;;;;;5054477;28;20574;-16
2021/04/01 09:28:13;;;;;;;14.75;3.50;;;;;;;;;;5055019;28;20571;-16
2021/04/01 09:30:39;;;;;;;10.32;4.53;;;;;;;;;;5054958;28;20029;-18
2021/04/01 09:33:09;;;;;;;12.25;4.57;;;;;;;;;;5055055;28;20078;-18
2021/04/01 09:35:36;;;;;;;18.73;6.22;;;;;;;;;;5067987;28;20111;-18
2021/04/01 09:38:04;;;;;;;18.08;6.68;;;;;;;;;;5074561;28;20116;-19
2021/04/01 09:40:31;;;;;;;18.75;5.20;;;;;;;;;;5073107;28;20024;-19
2021/04/01 09:43:07;;;;;;;16.33;6.40;;;;;;;;;;5073702;28;20026;-19
2021/04/01 09:45:32;;;;;;;15.15;3.85;;;;;;;;;;5074732;28;20032;-16
2021/04/01 09:48:01;;;;;;;18.80;6.72;;;;;;;;;;5073929;28;20388;-18
2021/04/01 09:50:35;;;;;;;14.65;6.22;;;;;;;;;;5073021;28;20012;-18
2021/04/01 09:53:02;;;;;;;14.68;4.38;;;;;;;;;;5074519;28;20024;-19
2021/04/01 09:55:40;;;;;;;17.05;5.88;;;;;;;;;;5074823;28;20016;-18
2021/04/01 09:58:23;;;;;;;21.52;6.50;;;;;;;;;;5074383;28;20055;-19
2021/04/01 10:03:32;;;;;;;20.83;7.90;;;;;;;;;;5074534;28;20035;-19
2021/04/01 10:05:57;;;;;;;17.17;5.93;;;;;;;;;;5070299;28;20059;-19
2021/04/01 10:08:26;;;;;;;11.35;5.35;;;;;;;;;;5071770;28;20028;-19
2021/04/01 10:10:52;;;;;;;17.42;5.22;;;;;;;;;;5071052;28;20036;-19
2021/04/01 10:13:18;;;;;;;15.23;5.65;;;;;;;;;;5070723;28;20024;-19
2021/04/01 10:15:44;;;;;;;20.73;6.85;;;;;;;;;;5071884;28;20032;-17
2021/04/01 10:18:09;;;;;;;13.63;4.75;;;;;;;;;;5071579;28;20379;-17
2021/04/01 10:20:35;;;;;;;24.52;7.28;;;;;;;;;;5071797;28;20090;-17
2021/04/01 10:23:05;;;;;;;27.00;8.02;;;;;;;;;;5070676;28;20024;-17
2021/04/01 10:25:35;;;;;;;16.52;5.57;;;;;;;;;;5071031;28;20110;-17
2021/04/01 10:28:45;;;;;;;18.63;6.03;;;;;;;;;;5071092;28;20031;-16
2021/04/01 10:30:50;;;;;;;24.98;8.60;;;;;;;;;;5063646;28;20495;-17
2021/04/01 10:33:20;;;;;;;24.08;8.70;;;;;;;;;;5074316;28;20013;-17
2021/04/01 10:35:48;;;;;;;25.88;6.78;;;;;;;;;;5074066;28;20032;-17
2021/04/01 10:38:15;;;;;;;19.10;6.05;;;;;;;;;;5074669;28;20028;-17
2021/04/01 10:40:40;;;;;;;16.38;6.82;;;;;;;;;;5074365;28;20463;-17
2021/04/01 10:43:10;;;;;;;21.80;6.90;;;;;;;;;;5072906;28;20012;-17
2021/04/01 10:45:39;;;;;;;15.88;6.30;;;;;;;;;;5074435;28;20037;-17
2021/04/01 10:48:17;;;;;;;10.77;3.97;;;;;;;;;;5074191;28;20056;-16
2021/04/01 10:50:43;;;;;;;16.10;5.20;;;;;;;;;;5074097;28;20040;-17
2021/04/01 10:53:16;;;;;;;18.33;5.63;;;;;;;;;;5074055;28;20012;-18
2021/04/01 10:55:42;;;;;;;24.63;7.30;;;;;;;;;;5074092;28;20032;-17
2021/04/01 10:58:08;;;;;;;9.88;4.47;;;;;;;;;;5073779;28;20497;-18
2021/04/01 11:00:35;;;;;;;1.85;1.00;;;;;;;;;;5074128;28;20067;-18
2021/04/01 11:03:02;;;;;;;17.83;6.20;;;;;;;;;;5073899;28;20020;-18
2021/04/01 11:05:29;;;;;;;11.20;3.58;;;;;;;;;;5073818;28;20123;-18
2021/04/01 11:08:04;;;;;;;15.38;3.88;;;;;;;;;;5072576;28;20476;-17
2021/04/01 11:10:30;;;;;;;13.13;2.67;;;;;;;;;;5074060;28;20040;-18
2021/04/01 11:12:58;;;;;;;6.85;3.85;;;;;;;;;;5073720;28;20490;-18
2021/04/01 11:15:25;;;;;;;15.02;5.60;;;;;;;;;;5073368;28;20029;-17
2021/04/01 11:17:53;;;;;;;1.25;1.13;;;;;;;;;;5073516;28;20016;-18
2021/04/01 11:20:22;;;;;;;18.30;6.15;;;;;;;;;;5072502;28;20029;-18
2021/04/01 11:23:03;;;;;;;14.98;6.00;;;;;;;;;;5073548;28;20020;-18
2021/04/01 11:25:29;;;;;;;12.70;5.82;;;;;;;;;;5073168;28;20391;-19
2021/04/01 11:27:55;;;;;;;16.23;4.70;;;;;;;;;;5073555;28;20025;-17
2021/04/01 11:30:21;;;;;;;14.65;5.82;;;;;;;;;;5073329;28;20024;-18
2021/04/01 11:32:51;;;;;;;16.60;6.82;;;;;;;;;;5073300;28;20069;-18
2021/04/01 11:35:17;;;;;;;12.25;3.92;;;;;;;;;;5073301;28;20021;-18
2021/04/01 11:37:46;;;;;;;15.73;5.57;;;;;;;;;;5069716;28;20027;-17
2021/04/01 11:40:12;;;;;;;6.20;2.85;;;;;;;;;;5069872;28;20483;-18
2021/04/01 11:42:38;;;;;;;16.50;6.22;;;;;;;;;;4714085;28;10000476;-18
2021/04/01 11:45:06;;;;;;;35.95;11.88;;;;;;;;;;5049879;28;20140;-18
2021/04/01 11:47:35;;;;;;;14.57;7.25;;;;;;;;;;5048316;28;20013;-19
2021/04/01 11:50:05;;;;;;;37.40;12.82;;;;;;;;;;5049204;28;20082;-18
2021/04/01 11:52:31;;;;;;;31.80;11.30;;;;;;;;;;5049408;28;20021;-18
2021/04/01 11:54:56;;;;;;;19.33;6.70;;;;;;;;;;5049358;28;20025;-18
2021/04/01 11:57:21;;;;;;;28.02;9.75;;;;;;;;;;5049046;28;20021;-19
2021/04/01 11:59:53;;;;;;;23.27;8.15;;;;;;;;;;5048107;28;20090;-19
2021/04/01 12:02:20;;;;;;;6.55;1.75;;;;;;;;;;5062228;28;20039;-18
2021/04/01 12:04:48;;;;;;;26.60;6.88;;;;;;;;;;5067706;28;20024;-19
2021/04/01 12:07:14;;;;;;;18.27;5.60;;;;;;;;;;5068879;28;20039;-18
2021/04/01 12:09:42;;;;;;;21.60;6.55;;;;;;;;;;5068920;28;20367;-18
2021/04/01 12:12:08;;;;;;;16.05;4.20;;;;;;;;;;5069234;28;20031;-18
2021/04/01 12:14:34;;;;;;;27.60;9.85;;;;;;;;;;5068791;28;20537;-19
2021/04/01 12:17:00;;;;;;;28.73;7.68;;;;;;;;;;5069056;28;20072;-18
2021/04/01 12:19:25;;;;;;;10.75;3.35;;;;;;;;;;5068966;28;20055;-18
2021/04/01 12:21:51;;;;;;;4.32;3.20;;;;;;;;;;5069129;28;20132;-18
2021/04/01 12:24:17;;;;;;;17.17;6.15;;;;;;;;;;5068061;28;20418;-18
2021/04/01 12:26:43;;;;;;;24.05;5.97;;;;;;;;;;5068560;28;20048;-22
2021/04/01 12:29:09;;;;;;;42.67;11.27;;;;;;;;;;5068193;28;20179;-18
2021/04/01 12:31:38;;;;;;;17.10;6.65;;;;;;;;;;5068413;28;20044;-18
2021/04/01 12:34:04;;;;;;;16.58;5.78;;;;;;;;;;5068957;28;20437;-18
2021/04/01 12:36:31;;;;;;;1.52;1.00;;;;;;;;;;5053187;28;20040;-19
2021/04/01 12:38:57;;;;;;;23.80;8.93;;;;;;;;;;5062386;28;20047;-18
2021/04/01 12:41:22;;;;;;;23.90;7.15;;;;;;;;;;5068489;28;20368;-18
2021/04/01 12:43:48;;;;;;;31.48;10.95;;;;;;;;;;5050028;28;20031;-18
2021/04/01 12:46:13;;;;;;;20.40;6.68;;;;;;;;;;5046848;28;20108;-19
2021/04/01 12:48:40;;;;;;;9.88;3.95;;;;;;;;;;5048080;28;20017;-16
2021/04/01 12:51:07;;;;;;;17.13;6.82;;;;;;;;;;5055196;28;20028;-17
2021/04/01 12:53:32;;;;;;;28.65;10.38;;;;;;;;;;5068970;28;20052;-17
2021/04/01 12:56:05;;;;;;;24.38;6.55;;;;;;;;;;5067854;28;20064;-17
2021/04/01 12:58:36;;;;;;;;;;;;;;;;;;5068933;28;20456;-16
2021/04/01 13:01:18;;;;;;;20.55;6.35;;;;;;;;;;5067963;28;19912;-17
2021/04/01 13:03:43;;;;;;;22.75;8.75;;;;;;;;;;5068527;28;20060;-17
2021/04/01 13:06:14;;;;;;;13.20;4.80;;;;;;;;;;5067976;28;20052;-17
2021/04/01 13:08:57;;;;;;;12.18;5.05;;;;;;;;;;5067947;28;20098;-17
2021/04/01 13:11:23;;;;;;;30.67;11.60;;;;;;;;;;5068487;28;20024;-17
2021/04/01 13:13:48;;;;;;;25.20;8.48;;;;;;;;;;5066437;28;20016;-17
2021/04/01 13:16:14;;;;;;;22.38;7.15;;;;;;;;;;5068342;28;20085;-17
2021/04/01 13:18:39;;;;;;;4.43;3.72;;;;;;;;;;5066394;28;20023;-17
2021/04/01 13:21:15;;;;;;;32.05;11.02;;;;;;;;;;5068463;28;20028;-18
2021/04/01 13:23:45;;;;;;;4.07;2.45;;;;;;;;;;5068175;28;20028;-19
2021/04/01 13:26:14;;;;;;;21.27;6.57;;;;;;;;;;5065995;28;20082;-18
2021/04/01 13:28:43;;;;;;;21.98;5.57;;;;;;;;;;5068449;28;20025;-19
2021/04/01 13:31:18;;;;;;;12.02;6.20;;;;;;;;;;5068004;28;20463;-20
2021/04/01 13:33:51;;;;;;;24.85;8.50;;;;;;;;;;5068197;28;20024;-19
2021/04/01 13:37:23;;;;;;;31.05;9.82;;;;;;;;;;5067623;28;20024;-19
2021/04/01 13:39:17;;;;;;;20.25;5.95;;;;;;;;;;5056907;28;20032;-19
2021/04/01 13:41:59;;;;;;;30.48;10.00;;;;;;;;;;5072208;28;20074;-19
2021/04/01 13:44:26;;;;;;;31.35;10.52;;;;;;;;;;5065899;28;20036;-19
2021/04/01 13:46:52;;;;;;;23.35;6.15;;;;;;;;;;5071864;28;20467;-19
2021/04/01 13:49:22;;;;;;;33.78;10.85;;;;;;;;;;5071224;28;20029;-16
2021/04/01 13:51:51;;;;;;;19.88;8.00;;;;;;;;;;5069968;28;20558;-16
2021/04/01 13:54:25;;;;;;;16.50;6.20;;;;;;;;;;5071386;28;20027;-16
2021/04/01 13:57:15;;;;;;;20.98;8.05;;;;;;;;;;5071117;28;20046;-16
2021/04/01 13:59:59;;;;;;;27.08;9.95;;;;;;;;;;5071201;28;20422;-16
2021/04/01 14:10:42;;;;;;;27.35;10.18;;;;;;;;;;5070856;28;20702;-17
2021/04/01 14:13:08;;;;;;;32.97;11.15;;;;;;;;;;5071054;28;20382;-17
2021/04/01 14:15:34;;;;;;;22.67;7.57;;;;;;;;;;5071114;28;20032;-16
2021/04/01 14:18:00;;;;;;;36.10;10.93;;;;;;;;;;5071238;28;20051;-16
2021/04/01 14:20:26;;;;;;;27.30;10.02;;;;;;;;;;5071007;28;20021;-19
2021/04/01 14:22:52;;;;;;;25.08;8.75;;;;;;;;;;5070816;28;20577;-20
2021/04/01 14:25:29;;;;;;;7.20;4.25;;;;;;;;;;5070548;28;20479;-19
2021/04/01 14:28:01;;;;;;;5.38;3.10;;;;;;;;;;5071254;28;20526;-17
2021/04/01 14:30:27;;;;;;;25.83;9.20;;;;;;;;;;5069850;28;20024;-17
2021/04/01 14:32:52;;;;;;;27.52;9.55;;;;;;;;;;5070922;28;20020;-17
2021/04/01 14:35:18;;;;;;;30.77;10.48;;;;;;;;;;5070973;28;20020;-18
2021/04/01 14:37:43;;;;;;;22.77;8.80;;;;;;;;;;5070255;28;20016;-17
2021/04/01 14:40:10;;;;;;;19.05;6.40;;;;;;;;;;5070571;28;20115;-17
2021/04/01 14:42:40;;;;;;;21.58;8.95;;;;;;;;;;5069502;28;20076;-17
2021/04/01 14:45:07;;;;;;;28.90;12.40;;;;;;;;;;5068993;28;20040;-17
2021/04/01 14:47:32;;;;;;;24.15;9.45;;;;;;;;;;5068837;28;20367;-17
2021/04/01 14:50:03;;;;;;;23.33;9.38;;;;;;;;;;5069697;28;20028;-17
2021/04/01 14:52:29;;;;;;;10.05;4.80;;;;;;;;;;5068292;28;20017;-18
2021/04/01 14:54:55;;;;;;;19.23;8.15;;;;;;;;;;5055307;28;20029;-18
2021/04/01 14:57:22;;;;;;;11.73;4.70;;;;;;;;;;5070344;28;20119;-17
2021/04/01 14:59:48;;;;;;;17.90;6.43;;;;;;;;;;5070398;28;20028;-17
2021/04/01 15:02:14;;;;;;;19.17;8.93;;;;;;;;;;5069564;28;20166;-17
2021/04/01 15:04:40;;;;;;;18.17;7.53;;;;;;;;;;5070337;28;20387;-17
2021/04/01 15:07:06;;;;;;;20.77;9.15;;;;;;;;;;5069109;28;20032;-18
2021/04/01 15:09:32;;;;;;;16.42;7.43;;;;;;;;;;5070663;28;20020;-17
2021/04/01 15:11:57;;;;;;;19.58;6.88;;;;;;;;;;5070483;28;20581;-17
2021/04/01 15:14:23;;;;;;;12.82;5.80;;;;;;;;;;5067194;28;20542;-17
2021/04/01 15:16:48;;;;;;;14.45;5.75;;;;;;;;;;5069386;28;20413;-18
2021/04/01 15:19:14;;;;;;;14.60;6.35;;;;;;;;;;5069928;28;20031;-17
2021/04/01 15:21:40;;;;;;;18.00;5.28;;;;;;;;;;5067591;28;20039;-17
2021/04/01 15:24:07;;;;;;;12.00;5.10;;;;;;;;;;5070074;28;20017;-17
2021/04/01 15:26:32;;;;;;;9.70;4.65;;;;;;;;;;5069353;28;20051;-18
2021/04/01 15:28:58;;;;;;;15.05;5.80;;;;;;;;;;5069993;28;20032;-17
2021/04/01 15:31:24;;;;;;;17.13;7.40;;;;;;;;;;5070142;28;20028;-17
2021/04/01 15:33:52;;;;;;;16.02;5.75;;;;;;;;;;5069762;28;20092;-18
2021/04/01 15:36:18;;;;;;;17.13;6.32;;;;;;;;;;5068963;28;20027;-17
2021/04/01 15:38:45;;;;;;;16.02;5.65;;;;;;;;;;5068044;28;20021;-21
2021/04/01 15:41:11;;;;;;;13.05;5.78;;;;;;;;;;5069172;28;20436;-17
2021/04/01 15:43:36;;;;;;;16.42;6.47;;;;;;;;;;5068177;28;20016;-17
2021/04/01 15:46:02;;;;;;;17.42;6.45;;;;;;;;;;5069509;28;20044;-17
2021/04/01 15:48:27;;;;;;;11.18;5.45;;;;;;;;;;5069049;28;20020;-17
2021/04/01 15:50:53;;;;;;;12.00;5.18;;;;;;;;;;5068015;28;20028;-17
2021/04/01 15:53:19;;;;;;;12.18;4.95;;;;;;;;;;5069330;28;20016;-17
2021/04/01 15:55:45;;;;;;;12.98;5.82;;;;;;;;;;5068190;28;20036;-17
2021/04/01 15:58:10;;;;;;;9.75;4.43;;;;;;;;;;5069485;28;20379;-18
2021/04/01 16:00:38;;;;;;;9.38;3.30;;;;;;;;;;5067682;28;20123;-17
2021/04/01 16:03:03;;;;;;;10.63;4.30;;;;;;;;;;5068994;28;20027;-17
2021/04/01 16:05:29;;;;;;;8.98;3.97;;;;;;;;;;5069399;28;20048;-17
2021/04/01 16:07:55;;;;;;;8.95;3.97;;;;;;;;;;5069171;28;20070;-17
2021/04/01 16:10:21;;;;;;;14.88;3.70;;;;;;;;;;5069467;28;20475;-17
2021/04/01 16:12:46;;;;;;;6.00;2.90;;;;;;;;;;5068819;28;20028;-18
2021/04/01 16:15:12;;;;;;;8.13;3.33;;;;;;;;;;5067655;28;20025;-16
2021/04/01 16:17:38;;;;;;;6.60;3.03;;;;;;;;;;5068928;28;20044;-17
2021/04/01 16:20:05;;;;;;;7.47;3.45;;;;;;;;;;5069015;28;20024;-17
2021/04/01 16:22:30;;;;;;;6.05;3.05;;;;;;;;;;5069007;28;20129;-17